createdAt,value
2022-09-12T00:00:52.507Z,15.13
2022-09-12T00:03:19.212Z,14.23
2022-09-12T00:05:47.416Z,14.48
2022-09-12T00:08:14.758Z,14.18
2022-09-12T00:10:43.690Z,14.77
2022-09-12T00:13:11.354Z,14.63
2022-09-12T00:15:39.960Z,14.90
2022-09-12T00:18:08.197Z,15.20
2022-09-12T00:20:35.256Z,15.38
2022-09-12T00:23:01.897Z,14.90
2022-09-12T00:25:30.643Z,15.38
2022-09-12T00:27:57.596Z,14.63
2022-09-12T00:30:24.209Z,14.90
2022-09-12T00:32:51.538Z,14.35
2022-09-12T00:35:18.165Z,14.82
2022-09-12T00:37:44.790Z,15.15
2022-09-12T00:40:11.539Z,16.65
2022-09-12T00:42:38.175Z,14.90
2022-09-12T00:45:05.229Z,14.65
2022-09-12T00:47:32.849Z,15.60
2022-09-12T00:50:10.852Z,16.65
2022-09-12T00:52:43.385Z,16.15
2022-09-12T00:55:17.715Z,15.63
2022-09-12T00:57:59.176Z,17.38
2022-09-12T01:00:27.455Z,15.82
2022-09-12T01:02:58.850Z,15.52
2022-09-12T01:05:28.248Z,15.95
2022-09-12T01:07:56.380Z,15.93
2022-09-12T01:10:23.978Z,15.93
2022-09-12T01:12:51.351Z,15.57
2022-09-12T01:15:18.169Z,13.73
2022-09-12T01:18:12.080Z,14.60
2022-09-12T01:20:50.405Z,15.40
2022-09-12T01:23:42.986Z,16.17
2022-09-12T01:26:22.684Z,17.48
2022-09-12T01:29:10.859Z,17.70
2022-09-12T01:32:03.801Z,18.00
2022-09-12T01:34:55.390Z,17.23
2022-09-12T01:37:36.740Z,17.98
2022-09-12T01:40:15.891Z,18.02
2022-09-12T01:43:03.173Z,18.27
2022-09-12T01:46:02.095Z,17.80
2022-09-12T01:48:56.367Z,17.90
2022-09-12T01:51:38.392Z,18.27
2022-09-12T01:54:19.541Z,19.25
2022-09-12T01:56:48.975Z,19.38
2022-09-12T01:59:25.360Z,19.58
2022-09-12T02:02:16.970Z,17.50
2022-09-12T02:05:02.533Z,20.75
2022-09-12T02:08:13.817Z,19.80
2022-09-12T02:11:10.971Z,20.10
2022-09-12T02:13:55.179Z,19.98
2022-09-12T02:16:42.078Z,18.83
2022-09-12T02:19:19.588Z,20.63
2022-09-12T02:21:55.148Z,20.00
2022-09-12T02:24:25.624Z,22.52
2022-09-12T02:26:58.357Z,21.60
2022-09-12T02:29:25.036Z,21.85
2022-09-12T02:31:59.610Z,21.80
2022-09-12T02:34:53.347Z,21.13
2022-09-12T02:37:53.592Z,19.73
2022-09-12T02:40:20.940Z,20.13
2022-09-12T02:42:47.589Z,20.23
2022-09-12T02:45:14.529Z,19.83
2022-09-12T02:47:49.160Z,20.60
2022-09-12T02:50:16.591Z,20.05
2022-09-12T02:52:43.636Z,20.33
2022-09-12T02:55:11.654Z,20.17
2022-09-12T02:57:38.804Z,20.73
2022-09-12T03:00:06.940Z,20.08
2022-09-12T03:02:45.731Z,20.67
2022-09-12T03:05:46.498Z,20.40
2022-09-12T03:08:40.345Z,18.27
2022-09-12T03:11:09.908Z,18.42
2022-09-12T03:14:11.777Z,18.85
2022-09-12T03:17:00.593Z,18.23
2022-09-12T03:19:48.801Z,19.08
2022-09-12T03:22:35.390Z,19.38
2022-09-12T03:25:16.874Z,20.40
2022-09-12T03:28:08.056Z,19.67
2022-09-12T03:30:46.380Z,20.00
2022-09-12T03:33:15.281Z,19.42
2022-09-12T03:35:43.622Z,19.25
2022-09-12T03:38:10.275Z,18.30
2022-09-12T03:40:38.373Z,20.42
2022-09-12T03:43:06.449Z,19.80
2022-09-12T03:45:33.390Z,19.00
2022-09-12T03:48:00.292Z,19.73
2022-09-12T03:50:27.004Z,18.05
2022-09-12T03:52:53.785Z,19.60
2022-09-12T03:55:20.652Z,19.52
2022-09-12T03:57:47.280Z,20.30
2022-09-12T04:00:19.039Z,19.10
2022-09-12T04:02:46.448Z,19.30
2022-09-12T04:05:13.189Z,19.75
2022-09-12T04:07:39.798Z,20.27
2022-09-12T04:10:07.118Z,19.70
2022-09-12T04:12:35.517Z,20.70
2022-09-12T04:15:02.330Z,21.45
2022-09-12T04:17:28.968Z,21.58
2022-09-12T04:19:55.574Z,20.42
2022-09-12T04:22:22.176Z,19.88
2022-09-12T04:24:48.768Z,19.95
2022-09-12T04:27:15.398Z,20.17
2022-09-12T04:29:42.008Z,19.35
2022-09-12T04:32:08.631Z,19.88
2022-09-12T04:34:35.344Z,20.05
2022-09-12T04:37:01.939Z,19.52
2022-09-12T04:39:28.603Z,20.50
2022-09-12T04:41:55.263Z,21.67
2022-09-12T04:44:22.041Z,21.05
2022-09-12T04:46:48.833Z,22.40
2022-09-12T04:49:19.380Z,22.13
2022-09-12T04:51:46.678Z,21.85
2022-09-12T04:54:18.951Z,21.77
2022-09-12T04:56:48.844Z,21.52
2022-09-12T04:59:17.742Z,22.73
2022-09-12T05:01:44.343Z,21.73
2022-09-12T05:04:12.928Z,20.35
2022-09-12T05:06:40.865Z,21.23
2022-09-12T05:09:11.226Z,24.00
2022-09-12T05:12:03.737Z,21.35
2022-09-12T05:14:27.039Z,23.48
2022-09-12T05:16:53.680Z,23.33
2022-09-12T05:19:20.356Z,23.13
2022-09-12T05:21:46.986Z,23.13
2022-09-12T05:24:13.698Z,24.98
2022-09-12T05:26:40.311Z,25.73
2022-09-12T05:29:07.090Z,25.63
2022-09-12T05:31:33.873Z,24.92
2022-09-12T05:34:00.601Z,25.35
2022-09-12T05:36:31.772Z,23.67
2022-09-12T05:39:00.379Z,23.58
2022-09-12T05:41:32.867Z,23.48
2022-09-12T05:44:01.966Z,25.73
2022-09-12T05:46:30.504Z,25.58
2022-09-12T05:48:58.405Z,24.08
2022-09-12T05:51:31.981Z,25.50
2022-09-12T05:54:00.261Z,26.23
2022-09-12T05:56:29.342Z,24.30
2022-09-12T05:59:03.404Z,25.45
2022-09-12T06:01:31.948Z,24.98
2022-09-12T06:04:03.173Z,26.17
2022-09-12T06:06:31.502Z,26.45
2022-09-12T06:09:00.736Z,25.40
2022-09-12T06:11:29.645Z,26.77
2022-09-12T06:13:58.069Z,25.17
2022-09-12T06:16:27.826Z,28.35
2022-09-12T06:18:59.628Z,28.05
2022-09-12T06:23:58.621Z,27.08
2022-09-12T06:26:26.094Z,25.50
2022-09-12T06:28:54.577Z,29.45
2022-09-12T06:31:25.082Z,29.48
2022-09-12T06:33:53.452Z,29.38
2022-09-12T06:36:26.560Z,27.35
2022-09-12T06:39:02.654Z,30.02
2022-09-12T06:41:31.238Z,30.67
2022-09-12T06:43:58.991Z,30.23
2022-09-12T06:46:26.307Z,30.08
2022-09-12T06:48:53.418Z,30.73
2022-09-12T06:51:20.355Z,29.42
2022-09-12T06:53:48.595Z,28.77
2022-09-12T06:56:19.197Z,25.20
2022-09-12T06:58:47.864Z,28.35
2022-09-12T07:01:34.963Z,30.20
2022-09-12T07:04:03.875Z,26.73
2022-09-12T07:06:35.783Z,23.95
2022-09-12T07:09:04.843Z,29.25
2022-09-12T07:11:34.319Z,31.48
2022-09-12T07:14:03.113Z,25.10
2022-09-12T07:16:30.363Z,28.52
2022-09-12T07:19:01.622Z,28.55
2022-09-12T07:21:29.255Z,29.25
2022-09-12T07:23:57.871Z,26.15
2022-09-12T07:26:29.092Z,28.42
2022-09-12T07:29:08.259Z,25.40
2022-09-12T07:31:44.940Z,24.80
2022-09-12T07:34:11.661Z,25.65
2022-09-12T07:36:39.119Z,24.77
2022-09-12T07:39:05.945Z,26.98
2022-09-12T07:41:36.462Z,29.05
2022-09-12T07:44:03.809Z,25.45
2022-09-12T07:46:31.494Z,27.73
2022-09-12T07:48:59.999Z,26.85
2022-09-12T07:51:28.318Z,27.45
2022-09-12T07:53:56.259Z,27.38
2022-09-12T07:56:28.834Z,27.08
2022-09-12T07:58:56.931Z,26.63
2022-09-12T08:01:23.842Z,24.20
2022-09-12T08:03:54.617Z,23.88
2022-09-12T08:06:25.637Z,24.00
2022-09-12T08:08:54.361Z,24.48
2022-09-12T08:11:22.998Z,22.83
2022-09-12T08:13:55.464Z,22.13
2022-09-12T08:16:29.564Z,21.52
2022-09-12T08:18:56.801Z,23.08
2022-09-12T08:21:26.409Z,21.88
2022-09-12T08:24:02.653Z,21.02
2022-09-12T08:26:30.962Z,21.17
2022-09-12T08:28:57.723Z,19.85
2022-09-12T08:31:26.718Z,20.67
2022-09-12T08:33:56.333Z,17.67
2022-09-12T08:36:25.570Z,19.00
2022-09-12T08:38:59.299Z,17.33
2022-09-12T08:41:37.670Z,18.02
2022-09-12T08:44:25.640Z,18.05
2022-09-12T08:47:21.324Z,16.50
2022-09-12T08:50:00.121Z,17.63
2022-09-12T08:52:54.060Z,16.33
2022-09-12T08:55:32.200Z,16.20
2022-09-12T08:58:01.458Z,15.48
2022-09-12T09:00:38.268Z,15.77
2022-09-12T09:03:13.003Z,14.40
2022-09-12T09:06:07.318Z,14.20
2022-09-12T09:08:58.359Z,14.13
2022-09-12T09:11:51.119Z,13.93
2022-09-12T09:14:42.343Z,15.20
2022-09-12T09:17:13.215Z,12.45
2022-09-12T09:19:50.843Z,14.13
2022-09-12T09:22:42.873Z,16.48
2022-09-12T09:25:23.482Z,14.43
2022-09-12T09:28:16.153Z,15.10
2022-09-12T09:30:44.889Z,16.33
2022-09-12T09:33:22.113Z,17.50
2022-09-12T09:35:57.654Z,18.77
2022-09-12T09:39:04.363Z,18.45
2022-09-12T09:41:54.640Z,20.73
2022-09-12T09:44:21.661Z,20.13
2022-09-12T09:46:54.253Z,19.48
2022-09-12T09:49:21.792Z,18.38
2022-09-12T09:51:48.912Z,19.80
2022-09-12T09:54:23.263Z,18.98
2022-09-12T09:56:50.228Z,16.08
2022-09-12T09:59:28.857Z,16.08
2022-09-12T10:02:23.270Z,15.82
2022-09-12T10:04:56.303Z,15.85
2022-09-12T10:07:23.620Z,15.73
2022-09-12T10:10:18.845Z,15.02
2022-09-12T10:12:45.988Z,14.98
2022-09-12T10:15:29.530Z,12.30
2022-09-12T10:17:57.193Z,13.55
2022-09-12T10:20:45.102Z,11.25
2022-09-12T10:23:37.533Z,9.95
2022-09-12T10:26:10.114Z,9.30
2022-09-12T10:28:46.955Z,10.90
2022-09-12T10:31:28.911Z,10.25
2022-09-12T10:34:00.284Z,8.75
2022-09-12T10:39:02.781Z,9.25
2022-09-12T10:41:40.497Z,7.75
2022-09-12T10:44:24.588Z,8.48
2022-09-12T10:46:51.266Z,9.50
2022-09-12T10:49:27.789Z,8.68
2022-09-12T10:51:55.868Z,8.57
2022-09-12T10:54:26.761Z,7.72
2022-09-12T10:56:59.153Z,8.27
2022-09-12T10:59:40.838Z,7.53
2022-09-12T11:02:19.382Z,7.50
2022-09-12T11:05:21.997Z,8.57
2022-09-12T11:07:52.039Z,10.10
2022-09-12T11:10:32.027Z,7.88
2022-09-12T11:13:20.855Z,6.57
2022-09-12T11:16:25.923Z,6.82
2022-09-12T11:19:14.390Z,5.65
2022-09-12T11:21:55.976Z,6.05
2022-09-12T11:24:54.998Z,6.07
2022-09-12T11:27:42.620Z,5.78
2022-09-12T11:30:14.783Z,5.93
2022-09-12T11:32:56.362Z,5.30
2022-09-12T11:35:26.121Z,5.75
2022-09-12T11:37:58.844Z,6.30
2022-09-12T11:40:49.858Z,5.80
2022-09-12T11:43:37.672Z,5.55
2022-09-12T11:46:36.415Z,5.60
2022-09-12T11:49:15.632Z,5.00
2022-09-12T11:51:49.416Z,5.22
2022-09-12T11:54:37.637Z,5.00
2022-09-12T11:57:16.849Z,4.28
2022-09-12T11:59:51.684Z,5.38
2022-09-12T12:02:43.673Z,4.22
2022-09-12T12:05:20.317Z,4.70
2022-09-12T12:07:56.897Z,5.18
2022-09-12T12:10:54.359Z,5.07
2022-09-12T12:13:32.709Z,4.72
2022-09-12T12:16:12.260Z,4.85
2022-09-12T12:18:40.054Z,4.20
2022-09-12T12:21:21.550Z,4.28
2022-09-12T12:24:09.839Z,4.97
2022-09-12T12:26:39.680Z,5.70
2022-09-12T12:29:18.305Z,4.90
2022-09-12T12:32:02.721Z,4.85
2022-09-12T12:34:33.431Z,4.25
2022-09-12T12:37:20.122Z,4.10
2022-09-12T12:39:50.851Z,4.45
2022-09-12T12:42:35.715Z,3.83
2022-09-12T12:45:20.177Z,3.75
2022-09-12T12:47:55.300Z,5.57
2022-09-12T12:50:28.078Z,4.55
2022-09-12T12:53:14.985Z,4.15
2022-09-12T12:55:44.361Z,3.47
2022-09-12T12:58:32.797Z,3.75
2022-09-12T13:01:04.933Z,3.35
2022-09-12T13:03:34.127Z,3.70
2022-09-12T13:06:05.295Z,2.78
2022-09-12T13:08:35.367Z,2.88
2022-09-12T13:11:05.285Z,3.00
2022-09-12T13:13:38.011Z,2.83
2022-09-12T13:16:04.895Z,2.97
2022-09-12T13:18:41.798Z,3.60
2022-09-12T13:21:16.941Z,3.38
2022-09-12T13:23:45.063Z,3.45
2022-09-12T13:26:23.896Z,2.53
2022-09-12T13:28:51.567Z,2.90
2022-09-12T13:31:28.482Z,3.13
2022-09-12T13:33:59.893Z,2.97
2022-09-12T13:36:47.730Z,2.85
2022-09-12T13:39:35.341Z,3.25
2022-09-12T13:42:30.711Z,3.35
2022-09-12T13:45:34.929Z,3.13
2022-09-12T13:48:02.955Z,2.83
2022-09-12T13:50:40.441Z,3.50
2022-09-12T13:53:15.758Z,3.38
2022-09-12T13:55:53.477Z,2.95
2022-09-12T13:58:21.797Z,3.50
2022-09-12T14:01:20.671Z,2.88
2022-09-12T14:04:14.020Z,3.03
2022-09-12T14:06:50.043Z,3.05
2022-09-12T14:09:26.833Z,2.60
2022-09-12T14:11:53.879Z,2.83
2022-09-12T14:14:32.712Z,3.38
2022-09-12T14:17:00.492Z,3.05
2022-09-12T14:19:29.180Z,3.28
2022-09-12T14:21:57.644Z,3.08
2022-09-12T14:24:24.641Z,3.80
2022-09-12T14:26:54.152Z,3.35
2022-09-12T14:29:22.441Z,2.60
2022-09-12T14:32:01.865Z,2.92
2022-09-12T14:34:28.971Z,3.00
2022-09-12T14:36:57.105Z,2.50
2022-09-12T14:39:44.608Z,3.08
2022-09-12T14:42:18.285Z,2.88
2022-09-12T14:44:56.375Z,2.95
2022-09-12T14:47:28.228Z,3.47
2022-09-12T14:49:55.028Z,3.00
2022-09-12T14:52:25.355Z,2.67
2022-09-12T14:55:04.630Z,3.05
2022-09-12T14:57:40.317Z,2.63
2022-09-12T15:00:12.695Z,2.63
2022-09-12T15:02:43.430Z,2.97
2022-09-12T15:05:10.668Z,3.10
2022-09-12T15:07:55.520Z,2.80
2022-09-12T15:10:35.420Z,2.88
2022-09-12T15:13:14.184Z,2.53
2022-09-12T15:15:44.098Z,2.70
2022-09-12T15:18:12.148Z,2.75
2022-09-12T15:20:40.830Z,2.85
2022-09-12T15:23:14.560Z,2.80
2022-09-12T15:25:41.244Z,2.60
2022-09-12T15:28:34.206Z,3.08
2022-09-12T15:31:07.140Z,2.78
2022-09-12T15:33:34.117Z,2.42
2022-09-12T15:36:00.760Z,2.47
2022-09-12T15:38:27.739Z,2.75
2022-09-12T15:40:54.681Z,2.60
2022-09-12T15:43:22.615Z,2.50
2022-09-12T15:45:51.679Z,2.75
2022-09-12T15:48:19.255Z,2.30
2022-09-12T15:50:46.107Z,2.10
2022-09-12T15:53:16.066Z,2.80
2022-09-12T15:55:43.597Z,2.33
2022-09-12T15:58:10.606Z,2.25
2022-09-12T16:00:37.329Z,2.50
2022-09-12T16:03:04.849Z,2.35
2022-09-12T16:05:31.782Z,2.33
2022-09-12T16:07:58.384Z,2.47
2022-09-12T16:10:28.939Z,2.40
2022-09-12T16:12:55.845Z,2.40
2022-09-12T16:15:24.752Z,2.50
2022-09-12T16:17:52.190Z,2.20
2022-09-12T16:20:19.676Z,2.30
2022-09-12T16:22:46.470Z,2.28
2022-09-12T16:25:13.373Z,1.95
2022-09-12T16:27:40.013Z,2.22
2022-09-12T16:30:08.313Z,2.22
2022-09-12T16:32:35.181Z,2.30
2022-09-12T16:35:02.021Z,2.58
2022-09-12T16:37:28.789Z,2.60
2022-09-12T16:39:55.613Z,2.20
2022-09-12T16:42:22.383Z,2.35
2022-09-12T16:44:49.140Z,2.33
2022-09-12T16:47:15.832Z,2.13
2022-09-12T16:49:42.480Z,2.22
2022-09-12T16:52:10.162Z,2.20
2022-09-12T16:54:36.987Z,2.13
2022-09-12T16:57:05.217Z,2.20
2022-09-12T16:59:32.173Z,2.10
2022-09-12T17:01:58.950Z,2.55
2022-09-12T17:04:25.646Z,2.38
2022-09-12T17:06:52.298Z,2.10
2022-09-12T17:09:19.032Z,1.90
2022-09-12T17:11:47.739Z,2.08
2022-09-12T17:14:14.438Z,2.20
2022-09-12T17:16:48.023Z,2.20
2022-09-12T17:19:20.970Z,2.30
2022-09-12T17:21:49.930Z,2.22
2022-09-12T17:24:18.178Z,2.30
2022-09-12T17:26:45.733Z,2.00
2022-09-12T17:29:13.808Z,2.28
2022-09-12T17:31:41.724Z,2.38
2022-09-12T17:34:08.414Z,2.50
2022-09-12T17:36:35.241Z,2.55
2022-09-12T17:39:03.795Z,2.50
2022-09-12T17:41:33.816Z,2.58
2022-09-12T17:44:02.374Z,2.45
2022-09-12T17:46:37.603Z,2.67
2022-09-12T17:49:07.414Z,2.35
2022-09-12T17:51:34.173Z,2.35
2022-09-12T17:54:10.257Z,2.30
2022-09-12T17:56:38.491Z,2.50
2022-09-12T17:59:07.172Z,3.00
2022-09-12T18:01:52.573Z,2.67
2022-09-12T18:04:19.976Z,2.85
2022-09-12T18:06:48.736Z,2.80
2022-09-12T18:09:18.273Z,3.33
2022-09-12T18:11:45.841Z,2.90
2022-09-12T18:14:14.323Z,3.10
2022-09-12T18:16:41.622Z,3.25
2022-09-12T18:19:08.380Z,3.17
2022-09-12T18:21:35.220Z,2.95
2022-09-12T18:24:03.017Z,3.08
2022-09-12T18:26:30.467Z,2.80
2022-09-12T18:28:57.848Z,3.15
2022-09-12T18:31:27.404Z,3.13
2022-09-12T18:33:54.197Z,2.92
2022-09-12T18:36:21.891Z,3.40
2022-09-12T18:38:49.347Z,3.63
2022-09-12T18:41:21.117Z,3.58
2022-09-12T18:43:48.712Z,3.30
2022-09-12T18:46:18.822Z,3.40
2022-09-12T18:48:46.286Z,3.20
2022-09-12T18:51:18.991Z,3.65
2022-09-12T18:54:08.989Z,3.88
2022-09-12T18:56:38.214Z,3.80
2022-09-12T18:59:06.529Z,3.63
2022-09-12T19:01:35.984Z,4.70
2022-09-12T19:04:04.921Z,3.90
2022-09-12T19:06:37.028Z,4.22
2022-09-12T19:09:07.782Z,4.03
2022-09-12T19:11:39.872Z,3.97
2022-09-12T19:14:07.624Z,3.30
2022-09-12T19:16:34.610Z,3.78
2022-09-12T19:19:02.544Z,3.50
2022-09-12T19:21:30.920Z,3.63
2022-09-12T19:24:00.488Z,3.80
2022-09-12T19:26:27.615Z,3.72
2022-09-12T19:28:55.358Z,3.47
2022-09-12T19:31:23.315Z,3.97
2022-09-12T19:33:52.086Z,4.18
2022-09-12T19:36:44.381Z,3.85
2022-09-12T19:39:08.551Z,4.28
2022-09-12T19:41:35.825Z,4.22
2022-09-12T19:44:03.457Z,3.90
2022-09-12T19:46:30.146Z,3.50
2022-09-12T19:48:56.961Z,4.03
2022-09-12T19:51:24.088Z,4.60
2022-09-12T19:53:50.935Z,4.35
2022-09-12T19:56:17.623Z,4.05
2022-09-12T19:58:46.532Z,5.90
2022-09-12T20:01:24.600Z,4.95
2022-09-12T20:03:54.209Z,4.60
2022-09-12T20:06:20.930Z,4.10
2022-09-12T20:08:47.760Z,3.90
2022-09-12T20:11:17.540Z,3.95
2022-09-12T20:13:45.049Z,3.60
2022-09-12T20:16:20.401Z,4.10
2022-09-12T20:18:49.407Z,3.70
2022-09-12T20:21:19.329Z,3.90
2022-09-12T20:23:46.807Z,3.60
2022-09-12T20:26:13.867Z,4.13
2022-09-12T20:28:41.521Z,3.95
2022-09-12T20:31:12.113Z,3.60
2022-09-12T20:33:39.157Z,3.83
2022-09-12T20:36:08.624Z,4.00
2022-09-12T20:38:36.046Z,4.20
2022-09-12T20:41:05.367Z,3.80
2022-09-12T20:43:32.130Z,3.80
2022-09-12T20:45:59.050Z,3.70
2022-09-12T20:48:25.785Z,3.97
2022-09-12T20:50:52.453Z,3.90
2022-09-12T20:53:19.158Z,4.07
2022-09-12T20:55:52.728Z,5.13
2022-09-12T20:58:20.895Z,4.18
2022-09-12T21:00:47.985Z,4.30
2022-09-12T21:03:15.801Z,4.15
2022-09-12T21:05:46.290Z,4.10
2022-09-12T21:08:13.526Z,4.32
2022-09-12T21:10:44.425Z,4.65
2022-09-12T21:13:12.538Z,4.75
2022-09-12T21:15:40.493Z,4.32
2022-09-12T21:18:07.389Z,4.65
2022-09-12T21:20:34.351Z,4.60
2022-09-12T21:23:00.947Z,4.88
2022-09-12T21:25:29.030Z,4.55
2022-09-12T21:27:55.781Z,4.30
2022-09-12T21:30:22.398Z,5.22
2022-09-12T21:32:49.125Z,5.15
2022-09-12T21:35:15.816Z,4.70
2022-09-12T21:37:42.489Z,5.35
2022-09-12T21:40:09.474Z,5.32
2022-09-12T21:42:36.140Z,4.60
2022-09-12T21:45:02.799Z,5.35
2022-09-12T21:47:29.384Z,4.72
2022-09-12T21:49:56.040Z,5.20
2022-09-12T21:52:22.704Z,5.00
2022-09-12T21:54:49.321Z,4.78
2022-09-12T21:57:15.916Z,5.25
2022-09-12T21:59:42.587Z,4.95
2022-09-12T22:02:10.751Z,5.20
2022-09-12T22:04:37.450Z,5.47
2022-09-12T22:07:05.315Z,5.35
2022-09-12T22:09:32.803Z,4.70
2022-09-12T22:11:59.619Z,6.20
2022-09-12T22:14:26.260Z,5.10
2022-09-12T22:16:52.867Z,5.50
2022-09-12T22:19:19.604Z,5.60
2022-09-12T22:22:04.957Z,5.20
2022-09-12T22:24:31.701Z,5.68
2022-09-12T22:26:59.238Z,5.78
2022-09-12T22:29:26.797Z,5.72
2022-09-12T22:31:53.744Z,4.85
2022-09-12T22:34:20.590Z,5.20
2022-09-12T22:36:48.492Z,5.70
2022-09-12T22:39:15.321Z,5.60
2022-09-12T22:41:41.958Z,5.53
2022-09-12T22:44:10.492Z,4.93
2022-09-12T22:46:37.906Z,5.30
2022-09-12T22:49:05.664Z,5.60
2022-09-12T22:51:33.410Z,5.50
2022-09-12T22:54:00.255Z,5.32
2022-09-12T22:56:26.954Z,5.35
2022-09-12T22:58:54.041Z,5.80
2022-09-12T23:01:20.690Z,5.57
2022-09-12T23:03:47.355Z,5.35
2022-09-12T23:06:14.128Z,5.40
2022-09-12T23:08:40.752Z,5.57
2022-09-12T23:11:25.617Z,5.70
2022-09-12T23:13:52.241Z,6.03
2022-09-12T23:16:21.644Z,6.05
2022-09-12T23:18:49.332Z,5.93
2022-09-12T23:21:18.917Z,5.72
2022-09-12T23:23:45.869Z,4.90
2022-09-12T23:26:18.276Z,5.28
2022-09-12T23:28:53.233Z,5.45
2022-09-12T23:31:25.048Z,5.45
2022-09-12T23:33:55.680Z,5.07
2022-09-12T23:36:24.100Z,5.60
2022-09-12T23:38:51.027Z,5.28
2022-09-12T23:41:18.943Z,5.13
2022-09-12T23:43:46.092Z,4.80
2022-09-12T23:46:14.252Z,5.05
2022-09-12T23:48:41.231Z,4.97
2022-09-12T23:51:07.861Z,5.10
2022-09-12T23:53:35.733Z,5.60
2022-09-12T23:56:02.492Z,5.13
2022-09-12T23:58:30.884Z,5.40
